createdAt,value
2019-03-16T00:01:37.147Z,80.15
2019-03-16T00:05:42.023Z,80.81
2019-03-16T00:09:46.922Z,80.87
2019-03-16T00:13:51.815Z,81.09
2019-03-16T00:17:56.724Z,81.58
2019-03-16T00:22:01.613Z,81.30
2019-03-16T00:26:06.498Z,80.98
2019-03-16T00:30:13.906Z,80.49
2019-03-16T00:34:18.791Z,80.44
2019-03-16T00:38:23.742Z,80.82
2019-03-16T00:42:28.575Z,80.79
2019-03-16T00:46:33.459Z,80.65
2019-03-16T00:50:38.357Z,80.20
2019-03-16T00:54:43.235Z,79.18
2019-03-16T00:58:48.131Z,79.14
2019-03-16T01:02:53.014Z,78.93
2019-03-16T01:06:57.892Z,79.31
2019-03-16T01:11:02.782Z,78.69
2019-03-16T01:15:12.292Z,78.26
2019-03-16T01:19:17.260Z,78.58
2019-03-16T01:23:22.167Z,79.12
2019-03-16T01:27:27.047Z,79.56
2019-03-16T01:31:31.938Z,80.06
2019-03-16T01:35:36.831Z,80.36
2019-03-16T01:39:41.725Z,80.35
2019-03-16T01:43:46.611Z,80.73
2019-03-16T01:47:51.486Z,80.79
2019-03-16T01:51:56.381Z,80.62
2019-03-16T01:56:01.264Z,80.37
2019-03-16T02:00:14.331Z,80.28
2019-03-16T02:04:19.201Z,80.60
2019-03-16T02:08:24.073Z,80.63
2019-03-16T02:12:28.962Z,80.36
2019-03-16T02:16:33.851Z,80.64
2019-03-16T02:20:38.740Z,80.73
2019-03-16T02:24:43.639Z,80.98
2019-03-16T02:28:48.524Z,81.13
2019-03-16T02:32:53.421Z,81.13
2019-03-16T02:36:58.309Z,80.97
2019-03-16T02:41:03.221Z,80.78
2019-03-16T02:45:09.641Z,81.09
2019-03-16T02:49:14.525Z,80.50
2019-03-16T02:53:19.411Z,79.95
2019-03-16T02:57:24.308Z,79.44
2019-03-16T03:01:29.189Z,78.85
2019-03-16T03:05:34.084Z,78.42
2019-03-16T03:09:38.955Z,78.70
2019-03-16T03:13:43.841Z,78.77
2019-03-16T03:17:48.752Z,78.53
2019-03-16T03:21:53.615Z,80.89
2019-03-16T03:25:58.511Z,78.66
2019-03-16T03:30:04.477Z,77.23
2019-03-16T03:34:09.363Z,77.62
2019-03-16T03:38:14.251Z,78.44
2019-03-16T03:42:19.151Z,77.86
2019-03-16T03:46:24.036Z,77.56
2019-03-16T03:50:28.937Z,78.15
2019-03-16T03:54:33.840Z,78.07
2019-03-16T03:58:38.722Z,77.68
2019-03-16T04:02:43.624Z,78.10
2019-03-16T04:06:48.499Z,78.25
2019-03-16T04:10:53.376Z,78.49
2019-03-16T04:14:58.260Z,78.82
2019-03-16T04:19:03.148Z,78.88
2019-03-16T04:23:08.043Z,78.92
2019-03-16T04:27:16.200Z,78.99
2019-03-16T04:31:19.617Z,79.33
2019-03-16T04:35:24.501Z,79.57
2019-03-16T04:39:29.388Z,79.62
2019-03-16T04:43:34.278Z,79.62
2019-03-16T04:47:39.173Z,79.70
2019-03-16T04:51:44.066Z,79.88
2019-03-16T04:55:48.945Z,79.85
2019-03-16T04:59:53.855Z,79.77
2019-03-16T05:03:58.751Z,79.92
2019-03-16T05:08:03.647Z,79.96
2019-03-16T05:12:08.531Z,80.21
2019-03-16T05:16:13.408Z,80.24
2019-03-16T05:20:18.300Z,79.97
2019-03-16T05:24:23.187Z,79.99
2019-03-16T05:28:28.077Z,80.12
2019-03-16T05:32:32.970Z,80.44
2019-03-16T05:36:37.855Z,80.32
2019-03-16T05:40:42.744Z,80.47
2019-03-16T05:44:47.641Z,80.24
2019-03-16T05:48:52.535Z,80.24
2019-03-16T05:52:57.431Z,80.33
2019-03-16T05:57:02.312Z,80.32
2019-03-16T06:01:07.202Z,80.34
2019-03-16T06:05:12.431Z,79.90
2019-03-16T06:09:17.424Z,80.61
2019-03-16T06:13:22.294Z,80.52
2019-03-16T06:17:27.188Z,80.25
2019-03-16T06:21:32.074Z,80.27
2019-03-16T06:25:36.973Z,80.37
2019-03-16T06:29:41.869Z,80.79
2019-03-16T06:33:46.758Z,81.07
2019-03-16T06:37:51.646Z,82.31
2019-03-16T06:41:56.542Z,82.99
2019-03-16T06:46:01.436Z,83.17
2019-03-16T06:50:14.656Z,82.88
2019-03-16T06:54:19.543Z,82.51
2019-03-16T06:58:24.442Z,82.15
2019-03-16T07:02:30.323Z,81.55
2019-03-16T07:06:35.216Z,80.71
2019-03-16T07:10:41.190Z,80.74
2019-03-16T07:14:46.163Z,80.61
2019-03-16T07:18:58.645Z,79.94
2019-03-16T07:22:57.719Z,79.60
2019-03-16T07:27:02.623Z,79.47
2019-03-16T07:31:07.515Z,78.46
2019-03-16T07:35:12.416Z,78.34
2019-03-16T07:39:17.301Z,77.76
2019-03-16T07:43:22.202Z,76.99
2019-03-16T07:47:27.098Z,76.84
2019-03-16T07:51:32.002Z,74.52
2019-03-16T07:55:36.909Z,74.15
2019-03-16T07:59:41.798Z,74.55
2019-03-16T08:03:46.691Z,75.14
2019-03-16T08:07:51.585Z,75.24
2019-03-16T08:11:56.835Z,74.82
2019-03-16T08:16:01.733Z,74.83
2019-03-16T08:20:08.391Z,75.56
2019-03-16T08:24:13.284Z,75.64
2019-03-16T08:28:18.188Z,75.65
2019-03-16T08:32:25.415Z,74.06
2019-03-16T08:36:30.450Z,73.08
2019-03-16T08:40:35.344Z,71.72
2019-03-16T08:44:41.063Z,71.85
2019-03-16T08:48:45.963Z,71.94
2019-03-16T08:52:53.592Z,72.56
2019-03-16T08:56:57.457Z,73.18
2019-03-16T09:01:03.899Z,73.16
2019-03-16T09:05:08.863Z,73.23
2019-03-16T09:09:13.757Z,73.08
2019-03-16T09:13:18.651Z,73.03
2019-03-16T09:17:23.551Z,72.50
2019-03-16T09:21:28.456Z,72.25
2019-03-16T09:25:33.352Z,72.36
2019-03-16T09:29:38.257Z,72.63
2019-03-16T09:33:43.151Z,72.64
2019-03-16T09:37:48.054Z,71.33
2019-03-16T09:41:52.954Z,71.78
2019-03-16T09:45:58.925Z,71.62
2019-03-16T09:50:07.667Z,71.55
2019-03-16T09:54:12.559Z,71.94
2019-03-16T09:58:17.454Z,72.26
2019-03-16T10:02:22.363Z,72.29
2019-03-16T10:06:27.251Z,71.63
2019-03-16T10:10:32.152Z,71.70
2019-03-16T10:14:37.448Z,70.38
2019-03-16T10:18:42.351Z,70.58
2019-03-16T10:22:48.839Z,70.72
2019-03-16T10:26:53.734Z,69.75
2019-03-16T10:30:58.632Z,69.33
2019-03-16T10:35:03.590Z,70.36
2019-03-16T10:39:09.567Z,70.06
2019-03-16T10:43:14.475Z,66.72
2019-03-16T10:47:19.378Z,65.76
2019-03-16T10:51:24.275Z,62.99
2019-03-16T10:55:29.188Z,60.24
2019-03-16T10:59:34.092Z,61.61
2019-03-16T11:03:39.735Z,61.26
2019-03-16T11:07:44.758Z,63.05
2019-03-16T11:11:49.656Z,62.79
2019-03-16T11:15:54.559Z,62.24
2019-03-16T11:19:59.459Z,63.21
2019-03-16T11:24:04.840Z,63.86
2019-03-16T11:28:09.730Z,64.23
2019-03-16T11:32:14.633Z,63.41
2019-03-16T11:36:19.531Z,64.50
2019-03-16T11:40:24.443Z,65.03
2019-03-16T11:44:29.338Z,65.06
2019-03-16T11:48:34.233Z,62.76
2019-03-16T11:52:39.133Z,62.87
2019-03-16T11:56:44.024Z,63.28
2019-03-16T12:00:48.935Z,62.87
2019-03-16T12:04:53.821Z,63.14
2019-03-16T12:08:58.717Z,64.37
2019-03-16T12:13:16.423Z,63.08
2019-03-16T12:17:10.239Z,62.13
2019-03-16T12:21:15.136Z,61.30
2019-03-16T12:25:20.030Z,60.64
2019-03-16T12:29:33.507Z,60.70
2019-03-16T12:33:31.531Z,57.54
2019-03-16T12:37:36.421Z,57.38
2019-03-16T12:41:41.323Z,57.15
2019-03-16T12:45:46.212Z,57.32
2019-03-16T12:49:51.112Z,58.02
2019-03-16T12:53:56.016Z,57.35
2019-03-16T12:58:00.918Z,58.28
2019-03-16T13:02:05.818Z,57.95
2019-03-16T13:06:10.702Z,58.03
2019-03-16T13:10:16.939Z,58.11
2019-03-16T13:14:21.838Z,57.80
2019-03-16T13:18:26.741Z,55.67
2019-03-16T13:22:31.631Z,56.79
2019-03-16T13:26:36.524Z,56.64
2019-03-16T13:30:41.429Z,57.09
2019-03-16T13:34:46.330Z,56.67
2019-03-16T13:38:51.221Z,56.67
2019-03-16T13:42:56.115Z,56.19
2019-03-16T13:47:00.998Z,56.83
2019-03-16T13:51:05.896Z,57.64
2019-03-16T13:55:11.232Z,58.34
2019-03-16T13:59:16.127Z,59.23
2019-03-16T14:03:21.319Z,59.47
2019-03-16T14:07:26.206Z,60.64
2019-03-16T14:11:31.105Z,61.73
2019-03-16T14:15:36.008Z,61.49
2019-03-16T14:19:40.913Z,60.49
2019-03-16T14:23:45.804Z,58.96
2019-03-16T14:27:50.696Z,59.05
2019-03-16T14:31:55.596Z,60.00
2019-03-16T14:36:00.535Z,59.39
2019-03-16T14:40:12.380Z,60.04
2019-03-16T14:44:15.918Z,59.98
2019-03-16T14:48:20.819Z,59.80
2019-03-16T14:52:25.714Z,60.11
2019-03-16T14:56:30.624Z,59.55
2019-03-16T15:00:38.817Z,59.63
2019-03-16T15:04:42.126Z,60.01
2019-03-16T15:08:47.007Z,59.69
2019-03-16T15:12:51.910Z,60.15
2019-03-16T15:16:56.809Z,59.50
2019-03-16T15:21:01.703Z,59.25
2019-03-16T15:25:11.158Z,58.74
2019-03-16T15:29:15.344Z,57.98
2019-03-16T15:33:20.271Z,57.58
2019-03-16T15:37:25.143Z,57.02
2019-03-16T15:41:30.041Z,56.36
2019-03-16T15:45:35.056Z,56.72
2019-03-16T15:49:39.891Z,56.01
2019-03-16T15:53:44.792Z,55.86
2019-03-16T15:57:49.697Z,55.71
2019-03-16T16:01:54.598Z,56.11
2019-03-16T16:05:59.504Z,55.82
2019-03-16T16:10:07.236Z,55.98
2019-03-16T16:14:12.159Z,55.25
2019-03-16T16:18:17.061Z,54.59
2019-03-16T16:22:21.958Z,54.68
2019-03-16T16:26:26.858Z,54.56
2019-03-16T16:30:31.745Z,54.55
2019-03-16T16:34:36.642Z,54.59
2019-03-16T16:38:41.541Z,55.21
2019-03-16T16:42:46.509Z,54.66
2019-03-16T16:46:51.414Z,55.39
2019-03-16T16:50:56.294Z,55.65
2019-03-16T16:55:01.212Z,55.71
2019-03-16T16:59:06.085Z,56.00
2019-03-16T17:03:10.991Z,55.97
2019-03-16T17:07:15.888Z,56.12
2019-03-16T17:11:20.776Z,56.29
2019-03-16T17:15:25.675Z,56.56
2019-03-16T17:19:30.567Z,56.41
2019-03-16T17:23:35.468Z,57.15
2019-03-16T17:27:41.428Z,56.68
2019-03-16T17:31:46.330Z,56.94
2019-03-16T17:35:51.219Z,57.34
2019-03-16T17:39:56.125Z,56.88
2019-03-16T17:44:01.026Z,56.93
2019-03-16T17:48:05.968Z,57.10
2019-03-16T17:52:10.809Z,57.46
2019-03-16T17:56:15.714Z,57.57
2019-03-16T18:00:20.879Z,57.85
2019-03-16T18:04:27.857Z,58.19
2019-03-16T18:08:32.383Z,58.60
2019-03-16T18:12:37.285Z,58.99
2019-03-16T18:16:42.180Z,59.17
2019-03-16T18:20:47.076Z,58.83
2019-03-16T18:24:51.976Z,58.80
2019-03-16T18:28:56.874Z,59.09
2019-03-16T18:33:01.795Z,59.07
2019-03-16T18:37:06.690Z,59.05
2019-03-16T18:41:11.577Z,59.40
2019-03-16T18:45:22.034Z,59.87
2019-03-16T18:49:26.927Z,59.66
2019-03-16T18:53:31.815Z,59.72
2019-03-16T18:57:36.724Z,59.87
2019-03-16T19:01:41.616Z,60.04
2019-03-16T19:05:49.357Z,60.29
2019-03-16T19:09:53.720Z,60.48
2019-03-16T19:13:58.678Z,60.80
2019-03-16T19:18:03.570Z,61.06
2019-03-16T19:22:11.414Z,61.56
2019-03-16T19:26:15.057Z,61.23
2019-03-16T19:30:21.019Z,61.55
2019-03-16T19:34:25.903Z,61.20
2019-03-16T19:38:30.801Z,61.21
2019-03-16T19:42:35.682Z,61.51
2019-03-16T19:46:40.572Z,61.12
2019-03-16T19:50:45.453Z,61.17
2019-03-16T19:54:50.341Z,61.29
2019-03-16T19:59:00.565Z,61.42
2019-03-16T20:03:01.821Z,61.74
2019-03-16T20:07:18.436Z,62.20
2019-03-16T20:11:13.302Z,63.08
2019-03-16T20:15:18.183Z,62.85
2019-03-16T20:19:23.081Z,62.57
2019-03-16T20:23:27.962Z,62.21
2019-03-16T20:27:32.855Z,62.65
2019-03-16T20:31:46.748Z,62.82
2019-03-16T20:35:44.323Z,63.26
2019-03-16T20:39:49.226Z,63.75
2019-03-16T20:43:54.134Z,64.07
2019-03-16T20:47:58.998Z,64.25
2019-03-16T20:52:03.891Z,64.46
2019-03-16T20:56:08.772Z,64.76
2019-03-16T21:00:17.811Z,65.10
2019-03-16T21:04:22.710Z,65.83
2019-03-16T21:08:27.601Z,65.82
2019-03-16T21:12:32.501Z,66.20
2019-03-16T21:16:37.382Z,66.49
2019-03-16T21:20:42.278Z,66.83
2019-03-16T21:24:47.170Z,66.75
2019-03-16T21:28:52.076Z,66.96
2019-03-16T21:32:56.970Z,67.10
2019-03-16T21:37:01.875Z,67.34
2019-03-16T21:41:06.749Z,67.23
2019-03-16T21:45:12.882Z,67.38
2019-03-16T21:49:17.769Z,67.80
2019-03-16T21:53:23.729Z,67.52
2019-03-16T21:57:28.784Z,67.76
2019-03-16T22:01:33.776Z,67.77
2019-03-16T22:05:38.674Z,68.20
2019-03-16T22:09:43.571Z,68.56
2019-03-16T22:13:48.461Z,68.71
2019-03-16T22:17:53.370Z,68.93
2019-03-16T22:21:58.312Z,69.48
2019-03-16T22:26:03.205Z,69.67
2019-03-16T22:30:10.615Z,69.83
2019-03-16T22:34:15.491Z,69.87
2019-03-16T22:38:20.368Z,69.88
2019-03-16T22:42:25.264Z,70.02
2019-03-16T22:46:30.157Z,69.89
2019-03-16T22:50:35.047Z,70.47
2019-03-16T22:54:39.947Z,71.18
2019-03-16T22:58:44.829Z,71.31
2019-03-16T23:02:49.798Z,71.58
2019-03-16T23:06:54.622Z,72.26
2019-03-16T23:10:59.512Z,72.41
2019-03-16T23:15:06.518Z,71.37
2019-03-16T23:19:11.389Z,72.07
2019-03-16T23:23:16.284Z,72.45
2019-03-16T23:27:21.162Z,72.25
2019-03-16T23:31:26.056Z,72.18
2019-03-16T23:35:30.943Z,71.68
2019-03-16T23:39:35.894Z,71.13
2019-03-16T23:43:40.792Z,70.24
2019-03-16T23:47:45.681Z,68.92
2019-03-16T23:51:50.575Z,68.33
2019-03-16T23:55:55.463Z,67.90
